sensor_id;sensor_type;location;lat;lon;timestamp;temperature;humidity
60717;DHT22;46566;52.700;6.192;2023-02-01T07:56:49;5.90;99.90
60717;DHT22;46566;52.700;6.192;2023-02-01T07:59:14;6.30;99.90
60717;DHT22;46566;52.700;6.192;2023-02-01T08:01:41;6.30;99.90
60717;DHT22;46566;52.700;6.192;2023-02-01T08:04:12;6.30;99.90
60717;DHT22;46566;52.700;6.192;2023-02-01T08:06:39;6.30;99.90
60717;DHT22;46566;52.700;6.192;2023-02-01T08:09:06;6.30;99.90
60717;DHT22;46566;52.700;6.192;2023-02-01T08:11:33;6.40;99.90
60717;DHT22;46566;52.700;6.192;2023-02-01T08:13:59;6.40;99.90
60717;DHT22;46566;52.700;6.192;2023-02-01T08:16:25;6.40;99.90
60717;DHT22;46566;52.700;6.192;2023-02-01T08:18:52;6.40;99.90
60717;DHT22;46566;52.700;6.192;2023-02-01T08:21:23;6.40;99.90
60717;DHT22;46566;52.700;6.192;2023-02-01T08:23:50;6.40;99.90
60717;DHT22;46566;52.700;6.192;2023-02-01T08:26:21;6.40;99.90
60717;DHT22;46566;52.700;6.192;2023-02-01T08:28:58;6.40;99.90
60717;DHT22;46566;52.700;6.192;2023-02-01T08:31:27;6.40;99.90
60717;DHT22;46566;52.700;6.192;2023-02-01T08:33:55;6.50;99.90
60717;DHT22;46566;52.700;6.192;2023-02-01T08:36:22;6.50;99.90
60717;DHT22;46566;52.700;6.192;2023-02-01T08:38:48;6.50;99.90
60717;DHT22;46566;52.700;6.192;2023-02-01T08:41:16;6.50;99.90
60717;DHT22;46566;52.700;6.192;2023-02-01T08:43:43;6.50;99.90
60717;DHT22;46566;52.700;6.192;2023-02-01T08:46:10;6.50;99.90
60717;DHT22;46566;52.700;6.192;2023-02-01T08:48:37;6.50;99.90
60717;DHT22;46566;52.700;6.192;2023-02-01T08:51:09;6.60;99.90
60717;DHT22;46566;52.700;6.192;2023-02-01T08:53:36;6.60;99.90
60717;DHT22;46566;52.700;6.192;2023-02-01T08:56:02;6.60;99.90
60717;DHT22;46566;52.700;6.192;2023-02-01T08:58:28;6.60;99.90
60717;DHT22;46566;52.700;6.192;2023-02-01T09:00:55;6.60;99.90
60717;DHT22;46566;52.700;6.192;2023-02-01T09:03:21;6.60;99.90
60717;DHT22;46566;52.700;6.192;2023-02-01T09:05:47;6.60;99.90
60717;DHT22;46566;52.700;6.192;2023-02-01T09:08:13;6.60;99.90
60717;DHT22;46566;52.700;6.192;2023-02-01T09:10:41;6.60;99.90
60717;DHT22;46566;52.700;6.192;2023-02-01T09:13:07;6.60;99.90
60717;DHT22;46566;52.700;6.192;2023-02-01T09:15:34;6.70;99.90
60717;DHT22;46566;52.700;6.192;2023-02-01T09:18:00;6.70;99.90
60717;DHT22;46566;52.700;6.192;2023-02-01T09:20:25;6.70;99.90
60717;DHT22;46566;52.700;6.192;2023-02-01T09:22:52;6.70;99.90
60717;DHT22;46566;52.700;6.192;2023-02-01T09:25:18;6.70;99.90
60717;DHT22;46566;52.700;6.192;2023-02-01T09:27:44;6.60;99.90
60717;DHT22;46566;52.700;6.192;2023-02-01T09:30:10;6.70;99.90
60717;DHT22;46566;52.700;6.192;2023-02-01T09:32:36;6.70;99.90
60717;DHT22;46566;52.700;6.192;2023-02-01T09:35:02;6.70;99.90
60717;DHT22;46566;52.700;6.192;2023-02-01T09:37:27;6.70;99.90
60717;DHT22;46566;52.700;6.192;2023-02-01T09:39:53;6.70;99.90
60717;DHT22;46566;52.700;6.192;2023-02-01T09:45:24;6.70;99.90
60717;DHT22;46566;52.700;6.192;2023-02-01T09:47:55;6.70;99.90
60717;DHT22;46566;52.700;6.192;2023-02-01T09:50:34;6.70;99.90
60717;DHT22;46566;52.700;6.192;2023-02-01T09:55:51;6.70;99.90
60717;DHT22;46566;52.700;6.192;2023-02-01T09:58:35;6.70;99.90
60717;DHT22;46566;52.700;6.192;2023-02-01T10:01:03;6.70;99.90
60717;DHT22;46566;52.700;6.192;2023-02-01T10:03:32;6.70;99.90
60717;DHT22;46566;52.700;6.192;2023-02-01T10:09:02;6.70;99.90
60717;DHT22;46566;52.700;6.192;2023-02-01T10:11:59;6.70;99.90
60717;DHT22;46566;52.700;6.192;2023-02-01T10:15:03;6.70;99.90
60717;DHT22;46566;52.700;6.192;2023-02-01T10:17:46;6.70;99.90
60717;DHT22;46566;52.700;6.192;2023-02-01T10:23:44;6.70;99.90
60717;DHT22;46566;52.700;6.192;2023-02-01T10:26:19;6.70;99.90
60717;DHT22;46566;52.700;6.192;2023-02-01T10:28:52;6.70;99.90
60717;DHT22;46566;52.700;6.192;2023-02-01T10:31:19;6.70;99.90
60717;DHT22;46566;52.700;6.192;2023-02-01T10:33:50;6.80;99.90
60717;DHT22;46566;52.700;6.192;2023-02-01T10:36:31;6.80;99.90
60717;DHT22;46566;52.700;6.192;2023-02-01T10:38:58;6.80;99.90
60717;DHT22;46566;52.700;6.192;2023-02-01T10:41:35;6.80;99.90
60717;DHT22;46566;52.700;6.192;2023-02-01T10:44:11;6.80;99.90
60717;DHT22;46566;52.700;6.192;2023-02-01T10:46:38;6.70;99.90
60717;DHT22;46566;52.700;6.192;2023-02-01T10:49:08;6.70;99.90
60717;DHT22;46566;52.700;6.192;2023-02-01T10:54:21;6.60;99.90
60717;DHT22;46566;52.700;6.192;2023-02-01T10:56:49;6.60;99.90
60717;DHT22;46566;52.700;6.192;2023-02-01T10:59:18;6.60;99.90
60717;DHT22;46566;52.700;6.192;2023-02-01T11:01:46;6.60;99.90
60717;DHT22;46566;52.700;6.192;2023-02-01T11:04:18;6.70;99.90
60717;DHT22;46566;52.700;6.192;2023-02-01T11:06:52;6.70;99.90
60717;DHT22;46566;52.700;6.192;2023-02-01T11:09:23;6.70;99.90
60717;DHT22;46566;52.700;6.192;2023-02-01T11:19:46;6.80;99.90
60717;DHT22;46566;52.700;6.192;2023-02-01T11:22:13;6.80;99.90
60717;DHT22;46566;52.700;6.192;2023-02-01T11:24:40;6.80;99.90
60717;DHT22;46566;52.700;6.192;2023-02-01T11:27:21;6.90;99.90
60717;DHT22;46566;52.700;6.192;2023-02-01T11:29:51;6.90;99.90
60717;DHT22;46566;52.700;6.192;2023-02-01T11:32:19;6.90;99.90
60717;DHT22;46566;52.700;6.192;2023-02-01T11:34:49;7.00;99.90
60717;DHT22;46566;52.700;6.192;2023-02-01T11:37:23;7.00;99.90
60717;DHT22;46566;52.700;6.192;2023-02-01T11:39:58;7.10;99.90
60717;DHT22;46566;52.700;6.192;2023-02-01T11:42:25;7.10;99.90
60717;DHT22;46566;52.700;6.192;2023-02-01T11:47:42;7.00;99.90
60717;DHT22;46566;52.700;6.192;2023-02-01T11:50:18;6.90;99.90
60717;DHT22;46566;52.700;6.192;2023-02-01T11:58:50;6.80;99.90
60717;DHT22;46566;52.700;6.192;2023-02-01T12:07:37;6.80;99.90
60717;DHT22;46566;52.700;6.192;2023-02-01T12:13:20;6.80;99.90
60717;DHT22;46566;52.700;6.192;2023-02-01T12:24:35;6.70;99.90
60717;DHT22;46566;52.700;6.192;2023-02-01T12:30:10;6.70;99.90
60717;DHT22;46566;52.700;6.192;2023-02-01T12:32:53;6.70;99.90
60717;DHT22;46566;52.700;6.192;2023-02-01T12:35:41;6.70;99.90
60717;DHT22;46566;52.700;6.192;2023-02-01T12:43:57;6.90;99.90
60717;DHT22;46566;52.700;6.192;2023-02-01T12:46:46;6.90;99.90
60717;DHT22;46566;52.700;6.192;2023-02-01T12:49:22;6.90;99.90
60717;DHT22;46566;52.700;6.192;2023-02-01T12:51:55;6.90;99.90
60717;DHT22;46566;52.700;6.192;2023-02-01T12:54:47;6.90;99.90
60717;DHT22;46566;52.700;6.192;2023-02-01T12:57:22;6.90;99.90
60717;DHT22;46566;52.700;6.192;2023-02-01T13:00:00;7.00;99.90
60717;DHT22;46566;52.700;6.192;2023-02-01T13:02:40;7.00;99.90
60717;DHT22;46566;52.700;6.192;2023-02-01T13:05:20;7.00;99.90
60717;DHT22;46566;52.700;6.192;2023-02-01T13:08:08;7.10;99.90
60717;DHT22;46566;52.700;6.192;2023-02-01T13:10:36;7.20;99.90
60717;DHT22;46566;52.700;6.192;2023-02-01T13:13:22;7.20;99.90
60717;DHT22;46566;52.700;6.192;2023-02-01T13:15:58;7.30;99.90
60717;DHT22;46566;52.700;6.192;2023-02-01T13:18:34;7.40;99.90
60717;DHT22;46566;52.700;6.192;2023-02-01T13:21:06;7.40;99.90
60717;DHT22;46566;52.700;6.192;2023-02-01T13:23:38;7.40;99.90
60717;DHT22;46566;52.700;6.192;2023-02-01T13:26:05;7.40;99.90
60717;DHT22;46566;52.700;6.192;2023-02-01T13:28:40;7.40;99.90
60717;DHT22;46566;52.700;6.192;2023-02-01T13:39:37;7.50;99.90
60717;DHT22;46566;52.700;6.192;2023-02-01T13:42:15;7.50;99.90
60717;DHT22;46566;52.700;6.192;2023-02-01T13:44:56;7.50;99.90
60717;DHT22;46566;52.700;6.192;2023-02-01T13:47:29;7.50;99.90
60717;DHT22;46566;52.700;6.192;2023-02-01T13:49:58;7.50;99.90
60717;DHT22;46566;52.700;6.192;2023-02-01T13:52:37;7.60;99.90
60717;DHT22;46566;52.700;6.192;2023-02-01T13:55:23;7.70;99.90
60717;DHT22;46566;52.700;6.192;2023-02-01T13:57:52;7.70;99.90
60717;DHT22;46566;52.700;6.192;2023-02-01T14:00:29;7.80;99.90
60717;DHT22;46566;52.700;6.192;2023-02-01T14:10:57;7.80;99.90
60717;DHT22;46566;52.700;6.192;2023-02-01T14:21:30;7.70;99.90
